LERS/REU METAR and TAF weather

Enter ICAO airport designator
Station Type Date Time Source
LERS METAR 2021/07/24 19:30 UTC NOAA

LERS 241930Z 10004KT 060V140 9999 BKN016 25/22 Q1009


Station Type Date Time Source
LERS Decoded METAR 2021/07/24 19:30 UTC NOAA

Reus / Aeropuerto, Spain (LERS) 41-09N 001-10E 76M
Jul 24, 2021 - 03:30 PM EDT / 2021.07.24 1930 UTC
Wind: from the E (100 degrees) at 5 MPH (4 KT) (direction variable):0
Visibility: greater than 7 mile(s):0
Sky conditions: mostly cloudy
Temperature: 77 F (25 C)
Dew Point: 71 F (22 C)
Relative Humidity: 83%
Pressure (altimeter): 29.80 in. Hg (1009 hPa)
ob: LERS 241930Z 10004KT 060V140 9999 BKN016 25/22 Q1009
cycle: 19

Station Type Date Time Source
LERS TAF 2021/07/24 19:36 UTC NOAA

TAF
AMD TAF
AMD LERS 241932Z 2419/2515 13010KT 9999 FEW015 TX32/2513Z TN20/2505Z
BECMG 2419/2421 VRB04KT
TEMPO 2419/2422 BKN014
BECMG 2502/2504 29008KT
BECMG 2508/2510 20010KT

Example: see airport list